sensor_id;sensor_type;location;lat;lon;timestamp;temperature;humidity
44855;DHT22;30591;48.228;16.398;2023-06-22T00:00:26;19.70;99.90
44855;DHT22;30591;48.228;16.398;2023-06-22T00:02:54;19.60;99.90
44855;DHT22;30591;48.228;16.398;2023-06-22T00:05:21;19.50;99.90
44855;DHT22;30591;48.228;16.398;2023-06-22T00:07:48;19.50;99.90
44855;DHT22;30591;48.228;16.398;2023-06-22T00:10:16;19.50;99.90
44855;DHT22;30591;48.228;16.398;2023-06-22T00:12:43;19.50;99.90
44855;DHT22;30591;48.228;16.398;2023-06-22T00:15:10;19.40;99.90
44855;DHT22;30591;48.228;16.398;2023-06-22T00:17:37;19.30;99.90
44855;DHT22;30591;48.228;16.398;2023-06-22T00:20:05;19.20;99.90
44855;DHT22;30591;48.228;16.398;2023-06-22T00:22:33;19.20;99.90
44855;DHT22;30591;48.228;16.398;2023-06-22T00:25:09;19.10;99.90
44855;DHT22;30591;48.228;16.398;2023-06-22T00:27:37;19.10;99.90
44855;DHT22;30591;48.228;16.398;2023-06-22T00:30:07;19.00;99.90
44855;DHT22;30591;48.228;16.398;2023-06-22T00:32:34;18.90;99.90
44855;DHT22;30591;48.228;16.398;2023-06-22T00:35:02;19.00;99.90
44855;DHT22;30591;48.228;16.398;2023-06-22T00:37:29;19.10;99.90
44855;DHT22;30591;48.228;16.398;2023-06-22T00:39:58;19.00;99.90
44855;DHT22;30591;48.228;16.398;2023-06-22T00:42:25;19.00;99.90
44855;DHT22;30591;48.228;16.398;2023-06-22T00:44:53;19.00;99.90
44855;DHT22;30591;48.228;16.398;2023-06-22T00:47:21;19.00;99.90
44855;DHT22;30591;48.228;16.398;2023-06-22T00:49:50;18.90;99.90
44855;DHT22;30591;48.228;16.398;2023-06-22T00:52:21;18.90;99.90
44855;DHT22;30591;48.228;16.398;2023-06-22T00:54:56;18.80;99.90
44855;DHT22;30591;48.228;16.398;2023-06-22T00:57:26;18.80;99.90
44855;DHT22;30591;48.228;16.398;2023-06-22T00:59:55;18.80;99.90
44855;DHT22;30591;48.228;16.398;2023-06-22T01:02:22;18.90;99.90
44855;DHT22;30591;48.228;16.398;2023-06-22T01:04:51;18.90;99.90
44855;DHT22;30591;48.228;16.398;2023-06-22T01:12:32;18.90;99.90
44855;DHT22;30591;48.228;16.398;2023-06-22T01:15:14;18.90;99.90
44855;DHT22;30591;48.228;16.398;2023-06-22T01:17:44;18.80;99.90
44855;DHT22;30591;48.228;16.398;2023-06-22T01:20:14;18.90;99.90
44855;DHT22;30591;48.228;16.398;2023-06-22T01:23:21;18.90;99.90
44855;DHT22;30591;48.228;16.398;2023-06-22T01:26:17;19.00;99.90
44855;DHT22;30591;48.228;16.398;2023-06-22T01:28:50;19.00;99.90
44855;DHT22;30591;48.228;16.398;2023-06-22T01:31:20;19.00;99.90
44855;DHT22;30591;48.228;16.398;2023-06-22T01:33:53;19.00;99.90
44855;DHT22;30591;48.228;16.398;2023-06-22T01:36:22;19.00;99.90
44855;DHT22;30591;48.228;16.398;2023-06-22T01:38:52;18.80;99.90
44855;DHT22;30591;48.228;16.398;2023-06-22T01:41:24;18.70;99.90
44855;DHT22;30591;48.228;16.398;2023-06-22T01:43:53;18.70;99.90
44855;DHT22;30591;48.228;16.398;2023-06-22T01:46:21;18.70;99.90
44855;DHT22;30591;48.228;16.398;2023-06-22T01:48:50;18.60;99.90
44855;DHT22;30591;48.228;16.398;2023-06-22T01:51:18;18.60;99.90
44855;DHT22;30591;48.228;16.398;2023-06-22T01:53:45;18.70;99.90
44855;DHT22;30591;48.228;16.398;2023-06-22T01:56:17;18.50;99.90
44855;DHT22;30591;48.228;16.398;2023-06-22T01:59:00;18.80;99.90
44855;DHT22;30591;48.228;16.398;2023-06-22T02:01:33;18.70;99.90
44855;DHT22;30591;48.228;16.398;2023-06-22T02:04:29;18.70;99.90
44855;DHT22;30591;48.228;16.398;2023-06-22T02:06:58;18.50;99.90
44855;DHT22;30591;48.228;16.398;2023-06-22T02:09:29;18.30;99.90
44855;DHT22;30591;48.228;16.398;2023-06-22T02:11:58;18.30;99.90
44855;DHT22;30591;48.228;16.398;2023-06-22T02:14:26;18.20;99.90
44855;DHT22;30591;48.228;16.398;2023-06-22T02:16:55;18.10;99.90
44855;DHT22;30591;48.228;16.398;2023-06-22T02:19:27;18.20;99.90
44855;DHT22;30591;48.228;16.398;2023-06-22T02:21:54;18.20;99.90
44855;DHT22;30591;48.228;16.398;2023-06-22T02:24:21;18.30;99.90
44855;DHT22;30591;48.228;16.398;2023-06-22T02:26:50;18.30;99.90
44855;DHT22;30591;48.228;16.398;2023-06-22T02:29:18;18.10;99.90
44855;DHT22;30591;48.228;16.398;2023-06-22T02:31:45;18.00;99.90
44855;DHT22;30591;48.228;16.398;2023-06-22T02:34:13;18.00;99.90
44855;DHT22;30591;48.228;16.398;2023-06-22T02:36:49;18.10;99.90
44855;DHT22;30591;48.228;16.398;2023-06-22T02:39:24;18.20;99.90
44855;DHT22;30591;48.228;16.398;2023-06-22T02:41:53;18.20;99.90
44855;DHT22;30591;48.228;16.398;2023-06-22T02:44:22;18.20;99.90
44855;DHT22;30591;48.228;16.398;2023-06-22T02:46:50;18.10;99.90
44855;DHT22;30591;48.228;16.398;2023-06-22T02:49:18;18.00;99.90
44855;DHT22;30591;48.228;16.398;2023-06-22T02:51:47;18.20;99.90
44855;DHT22;30591;48.228;16.398;2023-06-22T02:54:17;18.20;99.90
44855;DHT22;30591;48.228;16.398;2023-06-22T02:56:47;18.10;99.90
44855;DHT22;30591;48.228;16.398;2023-06-22T02:59:15;18.10;99.90
44855;DHT22;30591;48.228;16.398;2023-06-22T03:01:46;18.10;99.90
44855;DHT22;30591;48.228;16.398;2023-06-22T03:04:19;18.10;99.90
44855;DHT22;30591;48.228;16.398;2023-06-22T03:06:47;18.20;99.90
44855;DHT22;30591;48.228;16.398;2023-06-22T03:09:19;18.20;99.90
44855;DHT22;30591;48.228;16.398;2023-06-22T03:11:47;18.20;99.90
44855;DHT22;30591;48.228;16.398;2023-06-22T03:14:15;18.20;99.90
44855;DHT22;30591;48.228;16.398;2023-06-22T03:16:42;18.20;99.90
44855;DHT22;30591;48.228;16.398;2023-06-22T03:19:11;18.30;99.90
44855;DHT22;30591;48.228;16.398;2023-06-22T03:21:38;18.30;99.90
44855;DHT22;30591;48.228;16.398;2023-06-22T03:24:07;18.20;99.90
44855;DHT22;30591;48.228;16.398;2023-06-22T03:26:35;18.20;99.90
44855;DHT22;30591;48.228;16.398;2023-06-22T03:29:02;18.30;99.90
44855;DHT22;30591;48.228;16.398;2023-06-22T03:31:31;18.10;99.90
44855;DHT22;30591;48.228;16.398;2023-06-22T03:33:59;18.20;99.90
44855;DHT22;30591;48.228;16.398;2023-06-22T03:36:27;18.10;99.90
44855;DHT22;30591;48.228;16.398;2023-06-22T03:38:55;18.10;99.90
44855;DHT22;30591;48.228;16.398;2023-06-22T03:41:23;18.10;99.90
44855;DHT22;30591;48.228;16.398;2023-06-22T03:43:50;18.00;99.90
44855;DHT22;30591;48.228;16.398;2023-06-22T03:46:17;18.00;99.90
44855;DHT22;30591;48.228;16.398;2023-06-22T03:48:45;18.10;99.90
44855;DHT22;30591;48.228;16.398;2023-06-22T03:51:12;18.10;99.90
44855;DHT22;30591;48.228;16.398;2023-06-22T03:53:39;18.10;99.90
44855;DHT22;30591;48.228;16.398;2023-06-22T03:56:06;18.20;99.90
44855;DHT22;30591;48.228;16.398;2023-06-22T03:58:34;18.10;99.90
44855;DHT22;30591;48.228;16.398;2023-06-22T04:01:03;18.20;99.90
44855;DHT22;30591;48.228;16.398;2023-06-22T04:03:30;18.40;99.90
44855;DHT22;30591;48.228;16.398;2023-06-22T04:05:58;18.50;99.90
44855;DHT22;30591;48.228;16.398;2023-06-22T04:08:25;18.50;99.90
44855;DHT22;30591;48.228;16.398;2023-06-22T04:10:53;18.70;99.90
44855;DHT22;30591;48.228;16.398;2023-06-22T04:13:20;18.80;99.90
44855;DHT22;30591;48.228;16.398;2023-06-22T04:15:48;18.90;99.90
44855;DHT22;30591;48.228;16.398;2023-06-22T04:18:15;19.10;99.90
44855;DHT22;30591;48.228;16.398;2023-06-22T04:20:42;19.10;99.90
44855;DHT22;30591;48.228;16.398;2023-06-22T04:23:12;19.20;99.90
44855;DHT22;30591;48.228;16.398;2023-06-22T04:25:39;19.20;99.90
44855;DHT22;30591;48.228;16.398;2023-06-22T04:28:07;19.30;99.90
44855;DHT22;30591;48.228;16.398;2023-06-22T04:30:39;19.40;99.90
44855;DHT22;30591;48.228;16.398;2023-06-22T04:33:15;19.50;99.90
44855;DHT22;30591;48.228;16.398;2023-06-22T04:35:45;19.60;99.90
44855;DHT22;30591;48.228;16.398;2023-06-22T04:38:13;19.70;99.90
44855;DHT22;30591;48.228;16.398;2023-06-22T04:40:40;19.80;99.90
44855;DHT22;30591;48.228;16.398;2023-06-22T04:43:07;20.00;99.90
44855;DHT22;30591;48.228;16.398;2023-06-22T04:45:37;20.00;99.90
44855;DHT22;30591;48.228;16.398;2023-06-22T04:48:08;20.20;99.90
44855;DHT22;30591;48.228;16.398;2023-06-22T04:50:38;20.30;99.90
44855;DHT22;30591;48.228;16.398;2023-06-22T04:53:05;20.50;99.90
44855;DHT22;30591;48.228;16.398;2023-06-22T04:55:34;20.50;99.90
44855;DHT22;30591;48.228;16.398;2023-06-22T04:58:04;20.60;99.90
44855;DHT22;30591;48.228;16.398;2023-06-22T05:00:31;20.60;99.90
44855;DHT22;30591;48.228;16.398;2023-06-22T05:02:59;20.70;99.90
44855;DHT22;30591;48.228;16.398;2023-06-22T05:05:45;20.70;99.90
44855;DHT22;30591;48.228;16.398;2023-06-22T05:08:13;20.80;99.90
44855;DHT22;30591;48.228;16.398;2023-06-22T05:10:41;20.80;99.90
44855;DHT22;30591;48.228;16.398;2023-06-22T05:13:28;20.90;99.90
44855;DHT22;30591;48.228;16.398;2023-06-22T05:15:55;21.00;99.90
44855;DHT22;30591;48.228;16.398;2023-06-22T05:18:29;21.20;99.90
44855;DHT22;30591;48.228;16.398;2023-06-22T05:20:58;21.30;99.90
44855;DHT22;30591;48.228;16.398;2023-06-22T05:23:27;21.40;99.90
44855;DHT22;30591;48.228;16.398;2023-06-22T05:25:54;21.60;99.90
44855;DHT22;30591;48.228;16.398;2023-06-22T05:28:22;21.60;99.90
44855;DHT22;30591;48.228;16.398;2023-06-22T05:30:50;21.70;99.90
44855;DHT22;30591;48.228;16.398;2023-06-22T05:33:17;21.80;99.90
44855;DHT22;30591;48.228;16.398;2023-06-22T05:35:45;22.00;99.90
44855;DHT22;30591;48.228;16.398;2023-06-22T05:38:12;22.10;99.90
44855;DHT22;30591;48.228;16.398;2023-06-22T05:40:39;22.30;99.90
44855;DHT22;30591;48.228;16.398;2023-06-22T05:43:06;22.40;99.90
44855;DHT22;30591;48.228;16.398;2023-06-22T05:45:33;22.50;99.90
44855;DHT22;30591;48.228;16.398;2023-06-22T05:48:01;22.70;99.90
44855;DHT22;30591;48.228;16.398;2023-06-22T05:50:28;22.70;99.90
44855;DHT22;30591;48.228;16.398;2023-06-22T05:52:56;22.80;99.90
44855;DHT22;30591;48.228;16.398;2023-06-22T05:55:25;23.00;99.90
44855;DHT22;30591;48.228;16.398;2023-06-22T05:57:52;23.10;99.90
44855;DHT22;30591;48.228;16.398;2023-06-22T06:00:20;23.20;99.90
44855;DHT22;30591;48.228;16.398;2023-06-22T06:02:49;23.40;99.90
44855;DHT22;30591;48.228;16.398;2023-06-22T06:05:16;23.50;99.90
44855;DHT22;30591;48.228;16.398;2023-06-22T06:07:44;23.60;99.90
44855;DHT22;30591;48.228;16.398;2023-06-22T06:10:12;23.80;99.90
44855;DHT22;30591;48.228;16.398;2023-06-22T06:12:39;23.80;99.90
44855;DHT22;30591;48.228;16.398;2023-06-22T06:15:07;23.90;99.90
44855;DHT22;30591;48.228;16.398;2023-06-22T06:17:46;24.10;99.90
44855;DHT22;30591;48.228;16.398;2023-06-22T06:20:14;24.00;99.90
44855;DHT22;30591;48.228;16.398;2023-06-22T06:22:42;24.20;99.90
44855;DHT22;30591;48.228;16.398;2023-06-22T06:25:10;24.10;99.90
44855;DHT22;30591;48.228;16.398;2023-06-22T06:27:37;24.20;99.90
44855;DHT22;30591;48.228;16.398;2023-06-22T06:30:05;24.40;99.90
44855;DHT22;30591;48.228;16.398;2023-06-22T06:32:32;24.50;99.90
44855;DHT22;30591;48.228;16.398;2023-06-22T06:35:00;24.60;99.90
44855;DHT22;30591;48.228;16.398;2023-06-22T06:37:27;24.60;99.90
